createdAt,value
2019-02-27T00:00:59.962Z,95.81
2019-02-27T00:01:59.944Z,96.39
2019-02-27T00:02:59.951Z,96.29
2019-02-27T00:04:02.382Z,96.80
2019-02-27T00:04:59.919Z,96.39
2019-02-27T00:05:59.897Z,96.80
2019-02-27T00:06:59.894Z,97.57
2019-02-27T00:07:59.893Z,98.19
2019-02-27T00:09:00.570Z,97.01
2019-02-27T00:09:59.863Z,98.25
2019-02-27T00:10:59.848Z,97.42
2019-02-27T00:11:59.841Z,98.77
2019-02-27T00:12:59.849Z,97.53
2019-02-27T00:13:59.806Z,97.22
2019-02-27T00:15:02.102Z,97.63
2019-02-27T00:16:00.784Z,98.05
2019-02-27T00:16:59.772Z,96.91
2019-02-27T00:17:59.786Z,97.32
2019-02-27T00:18:59.759Z,97.42
2019-02-27T00:20:04.158Z,98.10
2019-02-27T00:21:00.734Z,98.10
2019-02-27T00:21:59.738Z,98.10
2019-02-27T00:22:59.724Z,97.59
2019-02-27T00:23:59.710Z,98.00
2019-02-27T00:25:03.001Z,97.89
2019-02-27T00:25:59.685Z,97.28
2019-02-27T00:26:59.671Z,97.59
2019-02-27T00:27:59.675Z,97.38
2019-02-27T00:28:59.648Z,98.62
2019-02-27T00:30:04.525Z,97.28
2019-02-27T00:31:02.552Z,97.59
2019-02-27T00:31:59.643Z,96.97
2019-02-27T00:32:59.637Z,97.59
2019-02-27T00:34:00.445Z,97.38
2019-02-27T00:34:59.582Z,96.97
2019-02-27T00:35:59.573Z,96.45
2019-02-27T00:36:59.578Z,96.55
2019-02-27T00:37:59.571Z,96.34
2019-02-27T00:38:59.544Z,97.07
2019-02-27T00:39:59.533Z,96.97
2019-02-27T00:40:59.516Z,96.97
2019-02-27T00:41:59.547Z,96.55
2019-02-27T00:42:59.504Z,96.66
2019-02-27T00:44:01.490Z,96.76
2019-02-27T00:44:59.480Z,96.24
2019-02-27T00:45:59.463Z,95.73
2019-02-27T00:46:59.448Z,95.94
2019-02-27T00:47:59.468Z,95.77
2019-02-27T00:48:59.889Z,95.94
2019-02-27T00:49:59.433Z,96.24
2019-02-27T00:50:59.424Z,96.39
2019-02-27T00:51:59.406Z,96.86
2019-02-27T00:52:59.388Z,96.66
2019-02-27T00:53:59.426Z,96.66
2019-02-27T00:54:59.370Z,96.49
2019-02-27T00:55:59.371Z,96.59
2019-02-27T00:56:59.356Z,96.49
2019-02-27T00:57:59.364Z,96.59
2019-02-27T00:59:00.187Z,96.59
2019-02-27T00:59:59.320Z,97.01
2019-02-27T01:00:59.297Z,96.70
2019-02-27T01:01:59.312Z,96.80
2019-02-27T01:02:59.313Z,97.63
2019-02-27T01:04:02.239Z,96.91
2019-02-27T01:04:59.267Z,97.94
2019-02-27T01:05:59.248Z,98.46
2019-02-27T01:06:59.234Z,97.74
2019-02-27T01:07:59.229Z,97.74
2019-02-27T01:08:59.243Z,97.32
2019-02-27T01:09:59.206Z,97.99
2019-02-27T01:10:59.193Z,97.94
2019-02-27T01:11:59.177Z,97.06
2019-02-27T01:12:59.190Z,97.01
2019-02-27T01:13:59.186Z,97.32
2019-02-27T01:14:59.156Z,96.95
2019-02-27T01:15:59.148Z,97.67
2019-02-27T01:16:59.134Z,97.36
2019-02-27T01:17:59.118Z,97.67
2019-02-27T01:18:59.120Z,97.57
2019-02-27T01:19:59.088Z,97.16
2019-02-27T01:20:59.079Z,97.06
2019-02-27T01:21:59.074Z,98.19
2019-02-27T01:22:59.068Z,97.26
2019-02-27T01:23:59.077Z,97.88
2019-02-27T01:24:59.039Z,97.72
2019-02-27T01:25:59.034Z,97.62
2019-02-27T01:26:59.029Z,97.52
2019-02-27T01:27:59.020Z,98.24
2019-02-27T01:28:58.997Z,98.03
2019-02-27T01:29:59.011Z,98.03
2019-02-27T01:30:58.971Z,97.52
2019-02-27T01:31:58.957Z,97.93
2019-02-27T01:32:58.946Z,98.65
2019-02-27T01:33:58.945Z,98.75
2019-02-27T01:34:58.951Z,99.23
2019-02-27T01:35:58.926Z,99.02
2019-02-27T01:36:58.913Z,98.40
2019-02-27T01:37:58.891Z,98.50
2019-02-27T01:38:58.889Z,97.88
2019-02-27T01:39:58.907Z,97.57
2019-02-27T01:40:58.864Z,97.78
2019-02-27T01:41:58.848Z,97.36
2019-02-27T01:42:58.841Z,97.16
2019-02-27T01:43:58.827Z,98.50
2019-02-27T01:44:58.814Z,97.06
2019-02-27T01:45:58.835Z,97.20
2019-02-27T01:47:01.855Z,97.10
2019-02-27T01:47:58.790Z,98.03
2019-02-27T01:48:58.776Z,97.20
2019-02-27T01:49:58.754Z,97.41
2019-02-27T01:50:58.766Z,97.00
2019-02-27T01:51:59.231Z,97.10
2019-02-27T01:52:58.743Z,97.52
2019-02-27T01:53:58.727Z,98.13
2019-02-27T01:54:58.709Z,97.83
2019-02-27T01:55:58.722Z,97.20
2019-02-27T01:56:59.926Z,97.10
2019-02-27T01:57:58.688Z,97.62
2019-02-27T01:58:58.673Z,98.55
2019-02-27T01:59:58.658Z,97.10
2019-02-27T02:00:58.646Z,97.10
2019-02-27T02:02:01.068Z,97.93
2019-02-27T02:02:58.624Z,97.57
2019-02-27T02:03:58.637Z,97.52
2019-02-27T02:04:58.597Z,97.52
2019-02-27T02:05:59.225Z,97.83
2019-02-27T02:06:58.600Z,97.83
2019-02-27T02:07:58.572Z,98.03
2019-02-27T02:08:58.555Z,97.62
2019-02-27T02:09:58.566Z,97.83
2019-02-27T02:10:58.932Z,97.93
2019-02-27T02:11:58.548Z,97.62
2019-02-27T02:12:58.514Z,97.66
2019-02-27T02:13:58.492Z,97.52
2019-02-27T02:14:58.475Z,97.83
2019-02-27T02:16:00.913Z,98.80
2019-02-27T02:16:58.466Z,97.97
2019-02-27T02:17:58.462Z,97.62
2019-02-27T02:18:58.467Z,98.24
2019-02-27T02:19:58.456Z,97.45
2019-02-27T02:21:01.743Z,98.44
2019-02-27T02:21:58.410Z,97.35
2019-02-27T02:22:58.408Z,97.87
2019-02-27T02:23:58.384Z,97.62
2019-02-27T02:24:58.375Z,98.03
2019-02-27T02:26:01.117Z,97.45
2019-02-27T02:26:58.379Z,97.66
2019-02-27T02:27:58.346Z,96.83
2019-02-27T02:28:58.333Z,96.83
2019-02-27T02:29:58.337Z,96.73
2019-02-27T02:30:58.357Z,97.14
2019-02-27T02:31:59.332Z,97.56
2019-02-27T02:32:58.309Z,98.39
2019-02-27T02:33:58.287Z,98.33
2019-02-27T02:34:58.272Z,98.33
2019-02-27T02:35:58.269Z,98.43
2019-02-27T02:37:02.481Z,98.64
2019-02-27T02:37:58.288Z,97.50
2019-02-27T02:38:58.231Z,97.60
2019-02-27T02:39:58.225Z,97.60
2019-02-27T02:40:58.222Z,98.74
2019-02-27T02:41:58.191Z,98.33
2019-02-27T02:42:59.089Z,98.07
2019-02-27T02:43:58.203Z,98.22
2019-02-27T02:44:58.411Z,98.12
2019-02-27T02:45:58.149Z,98.64
2019-02-27T02:46:58.142Z,98.64
2019-02-27T02:47:58.130Z,99.16
2019-02-27T02:48:58.140Z,98.33
2019-02-27T02:49:58.114Z,98.17
2019-02-27T02:50:58.108Z,98.27
2019-02-27T02:51:58.110Z,97.96
2019-02-27T02:52:58.083Z,97.55
2019-02-27T02:54:01.800Z,97.80
2019-02-27T02:54:58.052Z,97.59
2019-02-27T02:55:58.039Z,97.49
2019-02-27T02:57:00.725Z,98.52
2019-02-27T02:57:58.034Z,97.80
2019-02-27T02:58:58.021Z,98.00
2019-02-27T03:00:00.135Z,98.26
2019-02-27T03:00:57.991Z,98.21
2019-02-27T03:01:57.980Z,99.19
2019-02-27T03:03:00.988Z,98.94
2019-02-27T03:03:57.963Z,99.15
2019-02-27T03:04:57.970Z,99.87
2019-02-27T03:05:59.770Z,99.66
2019-02-27T03:06:57.929Z,99.98
2019-02-27T03:07:57.915Z,99.99
2019-02-27T03:08:57.897Z,99.99
2019-02-27T03:09:57.911Z,99.99
2019-02-27T03:10:57.900Z,99.99
2019-02-27T03:11:57.877Z,99.99
2019-02-27T03:12:57.865Z,99.99
2019-02-27T03:13:57.854Z,99.99
2019-02-27T03:14:57.840Z,99.99
2019-02-27T03:16:03.993Z,99.99
2019-02-27T03:16:58.822Z,99.99
2019-02-27T03:17:57.802Z,99.99
2019-02-27T03:18:57.793Z,99.99
2019-02-27T03:19:57.778Z,99.99
2019-02-27T03:20:57.759Z,99.99
2019-02-27T03:22:03.080Z,99.99
2019-02-27T03:22:58.752Z,99.99
2019-02-27T03:23:57.746Z,99.99
2019-02-27T03:25:03.617Z,99.99
2019-02-27T03:25:58.703Z,99.99
2019-02-27T03:26:57.728Z,99.99
2019-02-27T03:27:57.695Z,99.99
2019-02-27T03:28:57.679Z,99.99
2019-02-27T03:29:57.686Z,99.99
2019-02-27T03:30:57.711Z,99.99
2019-02-27T03:32:00.669Z,99.99
2019-02-27T03:32:57.658Z,99.99
2019-02-27T03:34:05.138Z,99.99
2019-02-27T03:34:58.638Z,99.99
2019-02-27T03:35:59.968Z,99.99
2019-02-27T03:36:58.596Z,99.99
2019-02-27T03:37:57.618Z,99.99
2019-02-27T03:38:59.140Z,99.99
2019-02-27T03:39:57.561Z,99.99
2019-02-27T03:40:57.584Z,99.99
2019-02-27T03:41:59.446Z,99.99
2019-02-27T03:42:57.566Z,99.99
2019-02-27T03:43:57.534Z,99.99
2019-02-27T03:44:57.535Z,99.99
2019-02-27T03:45:57.493Z,99.99
2019-02-27T03:46:57.492Z,99.99
2019-02-27T03:47:57.489Z,99.99
2019-02-27T03:49:02.930Z,99.99
2019-02-27T03:49:58.440Z,99.99
2019-02-27T03:50:57.439Z,99.99
2019-02-27T03:52:00.452Z,99.99
2019-02-27T03:52:57.410Z,99.99
2019-02-27T03:53:57.427Z,99.99
2019-02-27T03:54:58.443Z,99.99
2019-02-27T03:55:57.399Z,99.99
2019-02-27T03:56:57.378Z,99.52
2019-02-27T03:57:57.364Z,99.41
2019-02-27T03:58:57.374Z,99.62
2019-02-27T03:59:57.358Z,99.41
2019-02-27T04:00:57.352Z,99.31
2019-02-27T04:01:57.331Z,99.31
2019-02-27T04:02:57.325Z,98.79
2019-02-27T04:03:57.291Z,99.00
2019-02-27T04:04:57.285Z,98.90
2019-02-27T04:05:57.311Z,98.32
2019-02-27T04:06:57.373Z,98.42
2019-02-27T04:07:57.270Z,98.83
2019-02-27T04:08:57.250Z,98.63
2019-02-27T04:09:57.231Z,98.21
2019-02-27T04:10:57.221Z,98.83
2019-02-27T04:11:57.252Z,99.09
2019-02-27T04:12:57.197Z,98.99
2019-02-27T04:14:03.042Z,98.78
2019-02-27T04:14:58.189Z,98.78
2019-02-27T04:15:57.172Z,99.40
2019-02-27T04:16:57.166Z,99.40
2019-02-27T04:17:57.169Z,99.09
2019-02-27T04:19:03.082Z,99.34
2019-02-27T04:19:58.171Z,99.55
2019-02-27T04:20:57.116Z,99.44
2019-02-27T04:22:00.761Z,99.86
2019-02-27T04:22:57.118Z,99.82
2019-02-27T04:23:57.077Z,99.71
2019-02-27T04:24:57.697Z,99.19
2019-02-27T04:25:57.061Z,99.76
2019-02-27T04:26:57.054Z,99.76
2019-02-27T04:27:57.074Z,99.24
2019-02-27T04:28:57.028Z,99.65
2019-02-27T04:29:57.009Z,99.24
2019-02-27T04:30:56.996Z,99.96
2019-02-27T04:31:56.990Z,99.86
2019-02-27T04:32:56.996Z,99.65
2019-02-27T04:33:59.750Z,99.34
2019-02-27T04:34:56.972Z,99.24
2019-02-27T04:35:56.949Z,99.55
2019-02-27T04:36:56.958Z,99.99
2019-02-27T04:37:56.972Z,99.55
2019-02-27T04:38:56.941Z,99.76
2019-02-27T04:39:56.918Z,99.91
2019-02-27T04:40:56.903Z,99.99
2019-02-27T04:41:56.877Z,99.99
2019-02-27T04:42:57.068Z,99.99
2019-02-27T04:43:56.881Z,99.99
2019-02-27T04:44:56.853Z,99.99
2019-02-27T04:45:56.852Z,99.99
2019-02-27T04:46:56.834Z,99.99
2019-02-27T04:47:56.822Z,99.99
2019-02-27T04:48:56.834Z,99.99
2019-02-27T04:49:56.800Z,99.99
2019-02-27T04:50:56.785Z,99.99
2019-02-27T04:51:56.803Z,99.99
2019-02-27T04:52:58.044Z,99.99
2019-02-27T04:53:56.750Z,99.99
2019-02-27T04:54:56.734Z,99.99
2019-02-27T04:55:56.759Z,99.99
2019-02-27T04:56:57.576Z,99.99
2019-02-27T04:57:56.729Z,99.99
2019-02-27T04:58:56.707Z,99.99
2019-02-27T04:59:56.691Z,99.99
2019-02-27T05:00:58.957Z,99.99
2019-02-27T05:01:56.687Z,99.99
2019-02-27T05:02:56.651Z,99.99
2019-02-27T05:04:01.081Z,99.99
2019-02-27T05:04:56.632Z,99.99
2019-02-27T05:05:56.629Z,99.80
2019-02-27T05:06:56.648Z,99.99
2019-02-27T05:07:56.599Z,99.99
2019-02-27T05:08:59.715Z,99.99
2019-02-27T05:09:56.601Z,99.99
2019-02-27T05:10:56.569Z,99.99
2019-02-27T05:11:56.590Z,99.99
2019-02-27T05:12:56.550Z,99.99
2019-02-27T05:13:56.529Z,99.99
2019-02-27T05:14:56.522Z,99.99
2019-02-27T05:15:56.509Z,99.99
2019-02-27T05:16:56.503Z,99.95
2019-02-27T05:17:56.515Z,99.99
2019-02-27T05:18:56.489Z,99.95
2019-02-27T05:19:56.473Z,99.54
2019-02-27T05:20:56.468Z,99.90
2019-02-27T05:21:56.463Z,99.37
2019-02-27T05:23:00.174Z,99.95
2019-02-27T05:23:56.431Z,99.99
2019-02-27T05:24:56.420Z,99.99
2019-02-27T05:25:56.418Z,99.99
2019-02-27T05:26:58.074Z,99.99
2019-02-27T05:27:56.381Z,99.99
2019-02-27T05:28:56.385Z,99.99
2019-02-27T05:29:56.365Z,99.99
2019-02-27T05:30:56.355Z,99.99
2019-02-27T05:31:56.386Z,99.90
2019-02-27T05:33:01.655Z,99.68
2019-02-27T05:33:57.304Z,99.37
2019-02-27T05:34:56.300Z,99.85
2019-02-27T05:35:57.292Z,99.99
2019-02-27T05:36:56.276Z,99.90
2019-02-27T05:37:56.310Z,99.22
2019-02-27T05:38:56.270Z,99.74
2019-02-27T05:39:56.245Z,98.81
2019-02-27T05:40:59.825Z,98.85
2019-02-27T05:41:56.236Z,99.16
2019-02-27T05:42:56.222Z,99.12
2019-02-27T05:43:56.232Z,99.27
2019-02-27T05:44:56.760Z,98.91
2019-02-27T05:45:56.185Z,98.44
2019-02-27T05:46:56.169Z,98.54
2019-02-27T05:47:56.160Z,98.54
2019-02-27T05:48:56.182Z,98.54
2019-02-27T05:49:57.947Z,98.44
2019-02-27T05:50:56.134Z,98.96
2019-02-27T05:51:56.126Z,98.33
2019-02-27T05:52:56.131Z,98.27
2019-02-27T05:53:58.303Z,98.59
2019-02-27T05:54:56.104Z,98.69
2019-02-27T05:55:56.081Z,98.38
2019-02-27T05:56:56.068Z,98.48
2019-02-27T05:57:56.047Z,99.11
2019-02-27T05:58:56.251Z,98.48
2019-02-27T05:59:56.024Z,98.48
2019-02-27T06:00:56.016Z,99.11
2019-02-27T06:01:56.015Z,99.11
2019-02-27T06:02:56.837Z,98.07
2019-02-27T06:03:56.030Z,98.38
2019-02-27T06:04:56.138Z,97.86
2019-02-27T06:05:55.968Z,99.11
2019-02-27T06:06:55.952Z,98.17
2019-02-27T06:07:55.944Z,98.17
2019-02-27T06:08:55.940Z,98.27
2019-02-27T06:09:55.973Z,98.07
2019-02-27T06:10:56.256Z,97.44
2019-02-27T06:11:55.894Z,97.55
2019-02-27T06:12:55.887Z,98.54
2019-02-27T06:13:55.886Z,98.23
2019-02-27T06:14:55.905Z,97.61
2019-02-27T06:15:55.855Z,96.88
2019-02-27T06:16:55.849Z,97.19
2019-02-27T06:17:55.830Z,97.45
2019-02-27T06:18:56.279Z,96.62
2019-02-27T06:19:55.824Z,96.31
2019-02-27T06:20:55.817Z,96.06
2019-02-27T06:21:56.346Z,95.75
2019-02-27T06:22:55.784Z,94.36
2019-02-27T06:23:55.774Z,94.36
2019-02-27T06:24:55.766Z,94.26
2019-02-27T06:25:59.030Z,94.11
2019-02-27T06:26:55.763Z,92.97
2019-02-27T06:27:55.728Z,92.30
2019-02-27T06:28:55.719Z,91.89
2019-02-27T06:29:57.074Z,91.27
2019-02-27T06:30:55.692Z,91.16
2019-02-27T06:31:55.676Z,90.75
2019-02-27T06:32:55.694Z,90.75
2019-02-27T06:33:55.665Z,90.50
2019-02-27T06:34:59.054Z,89.98
2019-02-27T06:35:55.652Z,89.36
2019-02-27T06:36:55.631Z,89.56
2019-02-27T06:37:55.613Z,89.25
2019-02-27T06:39:00.131Z,88.69
2019-02-27T06:39:56.588Z,88.79
2019-02-27T06:40:55.577Z,88.76
2019-02-27T06:41:55.594Z,88.03
2019-02-27T06:42:56.886Z,86.75
2019-02-27T06:43:55.564Z,86.33
2019-02-27T06:44:55.542Z,85.36
2019-02-27T06:45:55.538Z,84.91
2019-02-27T06:46:55.526Z,83.77
2019-02-27T06:47:55.516Z,83.11
2019-02-27T06:48:56.464Z,83.07
2019-02-27T06:49:55.480Z,82.52
2019-02-27T06:50:55.471Z,80.62
2019-02-27T06:51:55.459Z,79.55
2019-02-27T06:52:55.457Z,79.11
2019-02-27T06:53:55.476Z,78.38
2019-02-27T06:54:55.433Z,77.62
2019-02-27T06:55:55.424Z,75.94
2019-02-27T06:56:55.411Z,74.88
2019-02-27T06:57:55.399Z,74.53
2019-02-27T06:58:55.383Z,73.68
2019-02-27T06:59:57.535Z,73.47
2019-02-27T07:00:56.372Z,71.37
2019-02-27T07:01:55.352Z,71.17
2019-02-27T07:02:56.123Z,71.07
2019-02-27T07:03:55.330Z,71.34
2019-02-27T07:04:55.342Z,71.04
2019-02-27T07:05:55.322Z,70.83
2019-02-27T07:06:55.970Z,70.21
2019-02-27T07:07:55.295Z,69.15
2019-02-27T07:08:55.291Z,68.95
2019-02-27T07:09:55.260Z,69.43
2019-02-27T07:10:57.425Z,69.12
2019-02-27T07:11:55.242Z,68.30
2019-02-27T07:12:55.413Z,68.48
2019-02-27T07:13:55.225Z,68.13
2019-02-27T07:14:55.236Z,66.80
2019-02-27T07:15:55.722Z,66.56
2019-02-27T07:16:57.349Z,65.33
2019-02-27T07:17:55.185Z,65.41
2019-02-27T07:18:55.179Z,64.07
2019-02-27T07:19:55.163Z,64.38
2019-02-27T07:20:55.657Z,64.38
2019-02-27T07:21:55.135Z,65.17
2019-02-27T07:22:55.122Z,64.86
2019-02-27T07:23:58.508Z,64.12
2019-02-27T07:24:55.096Z,63.09
2019-02-27T07:25:55.112Z,63.47
2019-02-27T07:26:55.080Z,62.52
2019-02-27T07:27:55.105Z,61.70
2019-02-27T07:28:55.074Z,60.55
2019-02-27T07:29:55.045Z,60.42
2019-02-27T07:30:55.049Z,59.80
2019-02-27T07:31:57.096Z,59.27
2019-02-27T07:32:55.018Z,58.62
2019-02-27T07:33:55.004Z,57.57
2019-02-27T07:34:54.989Z,57.17
2019-02-27T07:35:55.000Z,55.91
2019-02-27T07:36:54.961Z,55.99
2019-02-27T07:37:54.979Z,55.28
2019-02-27T07:38:57.558Z,54.85
2019-02-27T07:39:54.939Z,53.19
2019-02-27T07:40:54.928Z,52.96
2019-02-27T07:41:54.926Z,51.20
2019-02-27T07:42:54.900Z,51.69
2019-02-27T07:43:54.890Z,51.16
2019-02-27T07:44:54.904Z,49.71
2019-02-27T07:45:54.929Z,49.69
2019-02-27T07:46:57.182Z,47.83
2019-02-27T07:47:54.843Z,47.00
2019-02-27T07:48:56.727Z,45.97
2019-02-27T07:49:54.834Z,45.54
2019-02-27T07:50:54.837Z,45.31
2019-02-27T07:51:57.775Z,43.95
2019-02-27T07:52:54.796Z,42.82
2019-02-27T07:53:54.804Z,41.56
2019-02-27T07:54:54.767Z,40.01
2019-02-27T07:55:54.758Z,39.61
2019-02-27T07:56:54.744Z,38.78
2019-02-27T07:57:58.493Z,39.06
2019-02-27T07:58:54.736Z,38.04
2019-02-27T07:59:54.710Z,37.51
2019-02-27T08:00:54.701Z,37.18
2019-02-27T08:01:54.684Z,36.05
2019-02-27T08:02:54.672Z,35.73
2019-02-27T08:03:54.710Z,34.91
2019-02-27T08:04:55.293Z,33.67
2019-02-27T08:05:54.645Z,33.75
2019-02-27T08:06:54.626Z,32.72
2019-02-27T08:07:54.618Z,31.90
2019-02-27T08:08:56.975Z,31.99
2019-02-27T08:09:54.632Z,31.46
2019-02-27T08:10:54.590Z,31.24
2019-02-27T08:11:54.586Z,29.61
2019-02-27T08:12:56.444Z,29.69
2019-02-27T08:13:54.559Z,28.07
2019-02-27T08:14:54.544Z,27.74
2019-02-27T08:15:54.559Z,25.93
2019-02-27T08:16:57.294Z,26.02
2019-02-27T08:17:57.499Z,25.79
2019-02-27T08:18:54.544Z,25.89
2019-02-27T08:19:54.508Z,25.07
2019-02-27T08:20:55.180Z,24.47
2019-02-27T08:21:54.481Z,23.66
2019-02-27T08:22:54.463Z,23.74
2019-02-27T08:23:55.130Z,23.43
2019-02-27T08:24:54.472Z,22.82
2019-02-27T08:25:54.430Z,21.62
2019-02-27T08:26:54.424Z,22.09
2019-02-27T08:27:54.435Z,21.00
2019-02-27T08:28:54.392Z,22.08
2019-02-27T08:29:54.417Z,21.09
2019-02-27T08:30:54.381Z,22.37
2019-02-27T08:31:54.366Z,21.37
2019-02-27T08:32:54.357Z,22.36
2019-02-27T08:33:54.333Z,20.97
2019-02-27T08:34:54.335Z,21.67
2019-02-27T08:35:54.355Z,21.45
2019-02-27T08:36:54.314Z,19.96
2019-02-27T08:38:02.133Z,20.55
2019-02-27T08:38:55.277Z,19.76
2019-02-27T08:39:54.270Z,20.65
2019-02-27T08:40:57.542Z,19.36
2019-02-27T08:41:54.349Z,19.45
2019-02-27T08:42:54.249Z,18.55
2019-02-27T08:43:54.231Z,20.35
2019-02-27T08:44:54.223Z,20.06
2019-02-27T08:45:54.222Z,19.26
2019-02-27T08:46:54.221Z,20.46
2019-02-27T08:47:55.747Z,20.75
2019-02-27T08:48:54.172Z,19.46
2019-02-27T08:49:57.637Z,20.44
2019-02-27T08:50:54.177Z,19.74
2019-02-27T08:51:54.162Z,19.54
2019-02-27T08:52:54.125Z,18.85
2019-02-27T08:53:54.135Z,19.74
2019-02-27T08:54:54.115Z,19.13
2019-02-27T08:55:54.104Z,19.13
2019-02-27T08:56:54.117Z,19.23
2019-02-27T08:57:56.834Z,18.52
2019-02-27T08:58:54.061Z,18.23
2019-02-27T08:59:54.058Z,17.73
2019-02-27T09:00:54.043Z,18.42
2019-02-27T09:01:56.315Z,19.21
2019-02-27T09:02:55.627Z,17.63
2019-02-27T09:03:54.037Z,18.41
2019-02-27T09:04:54.010Z,18.42
2019-02-27T09:05:54.671Z,18.12
2019-02-27T09:06:53.988Z,18.21
2019-02-27T09:07:54.010Z,17.93
2019-02-27T09:08:53.968Z,17.93
2019-02-27T09:09:55.207Z,17.44
2019-02-27T09:10:53.963Z,17.44
2019-02-27T09:11:53.925Z,17.54
2019-02-27T09:13:04.473Z,17.64
2019-02-27T09:13:54.919Z,18.33
2019-02-27T09:14:55.903Z,18.42
2019-02-27T09:15:53.907Z,17.94
2019-02-27T09:16:53.877Z,17.93
2019-02-27T09:17:53.891Z,17.63
2019-02-27T09:18:53.852Z,17.62
2019-02-27T09:19:53.840Z,17.92
2019-02-27T09:20:54.264Z,17.81
2019-02-27T09:21:53.836Z,18.01
2019-02-27T09:22:53.823Z,17.42
2019-02-27T09:23:53.817Z,18.40
2019-02-27T09:24:53.780Z,18.19
2019-02-27T09:25:57.243Z,18.10
2019-02-27T09:26:53.779Z,17.00
2019-02-27T09:27:53.767Z,17.00
2019-02-27T09:28:53.766Z,16.61
2019-02-27T09:29:54.854Z,16.89
2019-02-27T09:30:53.719Z,16.20
2019-02-27T09:31:53.724Z,15.42
2019-02-27T09:32:53.717Z,16.40
2019-02-27T09:33:53.992Z,16.40
2019-02-27T09:34:53.713Z,15.70
2019-02-27T09:35:53.677Z,15.89
2019-02-27T09:36:53.694Z,15.01
2019-02-27T09:37:53.651Z,15.50
2019-02-27T09:38:57.382Z,15.11
2019-02-27T09:39:53.639Z,15.99
2019-02-27T09:40:53.636Z,15.59
2019-02-27T09:41:53.601Z,15.40
2019-02-27T09:42:53.963Z,14.12
2019-02-27T09:43:53.609Z,14.70
2019-02-27T09:44:53.582Z,15.09
2019-02-27T09:45:53.572Z,14.20
2019-02-27T09:46:53.562Z,14.39
2019-02-27T09:47:53.552Z,13.11
2019-02-27T09:48:53.558Z,12.91
2019-02-27T09:49:53.552Z,13.10
2019-02-27T09:50:53.507Z,14.08
2019-02-27T09:51:56.348Z,13.10
2019-02-27T09:52:53.497Z,12.41
2019-02-27T09:53:53.485Z,12.91
2019-02-27T09:54:54.796Z,13.30
2019-02-27T09:55:54.366Z,12.71
2019-02-27T09:56:53.450Z,12.71
2019-02-27T09:57:53.446Z,11.72
2019-02-27T09:58:53.445Z,12.01
2019-02-27T09:59:54.181Z,11.62
2019-02-27T10:00:53.444Z,11.52
2019-02-27T10:01:53.397Z,11.72
2019-02-27T10:02:53.382Z,11.52
2019-02-27T10:03:55.306Z,11.72
2019-02-27T10:04:53.586Z,12.90
2019-02-27T10:05:53.371Z,11.62
2019-02-27T10:06:53.374Z,12.01
2019-02-27T10:07:53.344Z,11.91
2019-02-27T10:08:53.343Z,11.62
2019-02-27T10:09:53.320Z,12.80
2019-02-27T10:10:53.303Z,11.13
2019-02-27T10:11:53.322Z,12.30
2019-02-27T10:12:53.298Z,11.72
2019-02-27T10:13:53.277Z,12.70
2019-02-27T10:14:53.268Z,10.25
2019-02-27T10:15:53.259Z,9.27
2019-02-27T10:16:53.272Z,10.94
2019-02-27T10:17:53.251Z,11.33
2019-02-27T10:18:55.620Z,11.04
2019-02-27T10:19:53.226Z,11.13
2019-02-27T10:20:53.224Z,10.65
2019-02-27T10:21:53.220Z,11.14
2019-02-27T10:22:54.024Z,11.83
2019-02-27T10:23:53.302Z,10.95
2019-02-27T10:24:53.174Z,10.46
2019-02-27T10:25:53.258Z,10.95
2019-02-27T10:26:53.683Z,10.95
2019-02-27T10:27:53.139Z,11.34
2019-02-27T10:28:53.126Z,10.66
2019-02-27T10:29:53.136Z,11.24
2019-02-27T10:30:53.117Z,10.66
2019-02-27T10:31:53.127Z,11.83
2019-02-27T10:32:53.105Z,11.15
2019-02-27T10:33:53.099Z,11.24
2019-02-27T10:34:53.667Z,11.54
2019-02-27T10:35:53.059Z,11.05
2019-02-27T10:36:53.091Z,11.35
2019-02-27T10:37:54.436Z,11.06
2019-02-27T10:38:53.036Z,12.04
2019-02-27T10:39:53.029Z,12.74
2019-02-27T10:40:53.018Z,13.33
2019-02-27T10:41:52.992Z,10.88
2019-02-27T10:42:53.009Z,11.96
2019-02-27T10:43:54.013Z,11.57
2019-02-27T10:44:53.301Z,12.45
2019-02-27T10:45:52.955Z,12.35
2019-02-27T10:46:52.955Z,11.96
2019-02-27T10:47:52.932Z,13.04
2019-02-27T10:48:52.948Z,10.78
2019-02-27T10:49:52.923Z,12.55
2019-02-27T10:50:52.915Z,13.33
2019-02-27T10:51:52.907Z,12.45
2019-02-27T10:52:52.897Z,11.96
2019-02-27T10:53:52.901Z,11.66
2019-02-27T10:54:52.863Z,11.08
2019-02-27T10:55:52.858Z,13.14
2019-02-27T10:56:52.849Z,11.67
2019-02-27T10:57:52.844Z,13.14
2019-02-27T10:58:52.838Z,12.55
2019-02-27T10:59:52.840Z,13.15
2019-02-27T11:00:52.803Z,13.14
2019-02-27T11:01:52.818Z,11.76
2019-02-27T11:02:52.794Z,11.56
2019-02-27T11:03:54.584Z,12.44
2019-02-27T11:04:52.784Z,11.76
2019-02-27T11:05:55.454Z,12.84
2019-02-27T11:06:52.752Z,12.44
2019-02-27T11:07:53.514Z,12.74
2019-02-27T11:08:52.727Z,11.95
2019-02-27T11:09:52.742Z,12.43
2019-02-27T11:10:52.719Z,12.54
2019-02-27T11:11:53.950Z,10.87
2019-02-27T11:12:52.698Z,11.35
2019-02-27T11:13:55.312Z,11.65
2019-02-27T11:14:52.689Z,12.53
2019-02-27T11:15:52.660Z,10.77
2019-02-27T11:16:52.655Z,12.05
2019-02-27T11:17:53.444Z,11.07
2019-02-27T11:18:52.631Z,12.05
2019-02-27T11:19:52.614Z,11.37
2019-02-27T11:20:55.702Z,10.58
2019-02-27T11:21:53.601Z,10.98
2019-02-27T11:22:52.594Z,11.08
2019-02-27T11:23:52.581Z,11.28
2019-02-27T11:24:52.579Z,10.78
2019-02-27T11:25:56.544Z,13.73
2019-02-27T11:26:52.545Z,12.46
2019-02-27T11:27:52.536Z,13.04
2019-02-27T11:28:52.522Z,11.27
2019-02-27T11:29:52.519Z,10.97
2019-02-27T11:30:52.509Z,10.58
2019-02-27T11:31:52.503Z,11.16
2019-02-27T11:32:57.027Z,10.77
2019-02-27T11:33:53.477Z,9.98
2019-02-27T11:34:52.471Z,12.14
2019-02-27T11:35:52.489Z,10.77
2019-02-27T11:36:52.453Z,10.68
2019-02-27T11:37:52.437Z,10.97
2019-02-27T11:38:52.429Z,10.18
2019-02-27T11:39:52.409Z,10.97
2019-02-27T11:40:52.414Z,10.87
2019-02-27T11:41:52.426Z,10.38
2019-02-27T11:42:52.392Z,9.40
2019-02-27T11:43:52.803Z,9.50
2019-02-27T11:44:52.378Z,10.68
2019-02-27T11:45:52.358Z,9.59
2019-02-27T11:46:58.680Z,9.50
2019-02-27T11:47:53.359Z,10.09
2019-02-27T11:48:52.331Z,9.41
2019-02-27T11:49:52.307Z,9.51
2019-02-27T11:50:52.351Z,10.29
2019-02-27T11:51:53.252Z,10.20
2019-02-27T11:52:52.298Z,10.69
2019-02-27T11:53:52.281Z,10.20
2019-02-27T11:54:52.270Z,10.49
2019-02-27T11:55:52.267Z,9.51
2019-02-27T11:56:56.189Z,10.49
2019-02-27T11:57:52.248Z,10.39
2019-02-27T11:58:52.222Z,10.49
2019-02-27T11:59:52.212Z,10.49
2019-02-27T12:00:52.205Z,10.50
2019-02-27T12:01:55.400Z,10.31
2019-02-27T12:02:52.216Z,10.52
2019-02-27T12:03:52.171Z,11.23
2019-02-27T12:04:55.377Z,13.24
2019-02-27T12:05:52.168Z,12.87
2019-02-27T12:06:52.150Z,14.09
2019-02-27T12:07:52.146Z,14.71
2019-02-27T12:08:52.146Z,14.63
2019-02-27T12:09:52.110Z,16.04
2019-02-27T12:10:52.105Z,15.97
2019-02-27T12:11:52.086Z,17.08
2019-02-27T12:12:52.075Z,18.70
2019-02-27T12:13:52.103Z,18.21
2019-02-27T12:14:52.066Z,18.72
2019-02-27T12:15:52.055Z,20.84
2019-02-27T12:16:52.481Z,19.75
2019-02-27T12:17:52.039Z,20.36
2019-02-27T12:18:52.009Z,19.56
2019-02-27T12:19:52.009Z,21.08
2019-02-27T12:20:53.984Z,20.27
2019-02-27T12:21:51.976Z,21.29
2019-02-27T12:22:51.991Z,20.98
2019-02-27T12:23:51.955Z,21.09
2019-02-27T12:24:52.867Z,21.81
2019-02-27T12:25:51.953Z,21.51
2019-02-27T12:26:51.935Z,22.63
2019-02-27T12:27:51.950Z,22.33
2019-02-27T12:28:52.734Z,22.55
2019-02-27T12:29:51.889Z,22.55
2019-02-27T12:30:51.875Z,23.36
2019-02-27T12:31:51.878Z,24.27
2019-02-27T12:32:55.787Z,24.17
2019-02-27T12:33:51.875Z,24.38
2019-02-27T12:34:51.844Z,23.97
2019-02-27T12:35:51.823Z,24.48
2019-02-27T12:36:52.660Z,24.39
2019-02-27T12:37:51.826Z,25.20
2019-02-27T12:38:51.828Z,25.81
2019-02-27T12:39:51.785Z,24.10
2019-02-27T12:40:51.782Z,25.41
2019-02-27T12:41:51.769Z,24.51
2019-02-27T12:42:51.747Z,25.12
2019-02-27T12:43:52.713Z,25.62
2019-02-27T12:44:54.118Z,25.42
2019-02-27T12:45:51.727Z,25.63
2019-02-27T12:46:51.718Z,26.25
2019-02-27T12:47:51.702Z,27.66
2019-02-27T12:48:51.690Z,25.63
2019-02-27T12:49:54.152Z,25.65
2019-02-27T12:50:51.654Z,25.75
2019-02-27T12:51:51.657Z,25.15
2019-02-27T12:52:51.650Z,25.26